Time;durP1;ratioP1;P1;durP2;ratioP2;P2;SDS_P1;SDS_P2;PMS_P1;PMS_P2;Temp;Humidity;BMP_temperature;BMP_pressure;BME280_temperature;BME280_humidity;BME280_pressure;Samples;Min_cycle;Max_cycle;Signal;HPM_P1;HPM_P2
2022/08/07 00:00:20;;;;;;;1.50;0.95;;;19.10;70.90;;;19.72;62.10;101926.78;5147901;28;20058;-70
2022/08/07 00:02:54;;;;;;;1.40;1.00;;;19.10;71.20;;;19.68;62.36;101924.94;5165307;28;20521;-70
2022/08/07 00:05:27;;;;;;;1.10;1.00;;;19.10;71.50;;;19.60;62.42;101920.41;5165185;28;20048;-69
2022/08/07 00:07:59;;;;;;;3.60;2.13;;;19.00;71.60;;;19.43;62.85;101925.38;5164978;28;20042;-70
2022/08/07 00:10:32;;;;;;;7.90;3.90;;;18.90;71.60;;;19.37;62.68;101931.47;5165175;28;20046;-70
2022/08/07 00:13:06;;;;;;;6.15;3.88;;;18.80;71.50;;;19.37;62.63;101928.84;5165057;28;20039;-69
2022/08/07 00:15:38;;;;;;;4.32;3.15;;;18.80;71.70;;;19.38;62.59;101921.78;5147758;28;20066;-70
2022/08/07 00:18:11;;;;;;;2.70;2.00;;;18.80;71.70;;;19.39;62.36;101920.91;5147424;28;20145;-70
2022/08/07 00:20:43;;;;;;;5.88;2.20;;;18.80;71.40;;;19.38;62.12;101913.84;5165034;28;20053;-70
2022/08/07 00:23:15;;;;;;;3.40;2.22;;;18.80;71.20;;;19.38;61.93;101916.50;5165059;28;20113;-70
2022/08/07 00:25:47;;;;;;;2.65;1.92;;;18.80;71.20;;;19.36;61.93;101910.28;5147270;28;20107;-70
2022/08/07 00:28:21;;;;;;;3.92;1.73;;;18.70;71.30;;;19.33;62.12;101904.97;5165010;28;20137;-70
2022/08/07 00:30:53;;;;;;;2.28;1.40;;;18.70;71.40;;;19.31;62.26;101906.69;5164935;28;20070;-70
2022/08/07 00:33:27;;;;;;;2.58;1.30;;;18.70;71.60;;;19.29;62.40;101904.00;5147408;28;20042;-70
2022/08/07 00:35:59;;;;;;;1.75;1.27;;;18.70;71.80;;;19.27;62.59;101904.84;5164634;28;20396;-70
2022/08/07 00:38:31;;;;;;;3.05;1.20;;;18.60;71.90;;;19.22;62.82;101903.00;5147417;28;20050;-71
2022/08/07 00:41:05;;;;;;;2.22;1.50;;;18.60;72.10;;;19.14;63.20;101899.34;5147332;28;20491;-70
2022/08/07 00:43:38;;;;;;;3.25;1.00;;;18.60;72.40;;;19.11;63.42;101898.44;5147271;28;20050;-70
2022/08/07 00:46:11;;;;;;;1.85;0.98;;;18.60;72.50;;;19.10;63.48;101905.44;5146869;28;20045;-70
2022/08/07 00:48:43;;;;;;;2.40;1.25;;;18.50;72.70;;;19.08;63.75;101899.25;5164726;28;20061;-70
2022/08/07 00:51:15;;;;;;;2.67;1.10;;;18.50;73.00;;;19.07;64.07;101891.31;5147426;28;20046;-69
2022/08/07 00:53:47;;;;;;;2.28;1.42;;;18.50;73.10;;;19.05;63.83;101893.94;5164746;28;20430;-71
2022/08/07 00:56:20;;;;;;;3.30;1.58;;;18.50;73.00;;;19.03;63.28;101895.63;5147019;28;20411;-70
2022/08/07 00:58:53;;;;;;;1.83;1.30;;;18.40;72.60;;;19.01;63.30;101892.06;5164728;28;20407;-70
2022/08/07 01:01:25;;;;;;;1.67;1.00;;;18.40;72.80;;;18.99;63.53;101893.81;5149912;28;20062;-69
2022/08/07 01:03:58;;;;;;;1.70;0.90;;;18.40;73.60;;;18.96;63.60;101884.06;5168580;28;20389;-70
2022/08/07 01:06:30;;;;;;;1.23;0.90;;;18.40;73.10;;;18.93;63.60;101885.78;5150816;28;20043;-70
2022/08/07 01:09:04;;;;;;;1.17;0.95;;;18.40;73.10;;;18.91;63.58;101888.41;5151163;28;20082;-71
2022/08/07 01:11:36;;;;;;;1.52;1.00;;;18.30;73.00;;;18.87;63.65;101885.66;5150866;28;20065;-70
2022/08/07 01:14:09;;;;;;;3.38;0.98;;;18.30;73.10;;;18.83;63.55;101879.41;5168384;28;20097;-70
2022/08/07 01:16:43;;;;;;;1.20;1.08;;;18.20;73.60;;;18.80;63.55;101882.03;5168276;28;20058;-70
2022/08/07 01:19:16;;;;;;;1.58;1.00;;;18.20;73.10;;;18.76;63.67;101879.28;5168423;28;20066;-71
2022/08/07 01:21:52;;;;;;;1.38;1.00;;;18.20;73.40;;;18.72;63.88;101877.47;5150704;28;20062;-70
2022/08/07 01:24:25;;;;;;;1.77;1.08;;;18.10;73.60;;;18.68;64.04;101880.03;5150754;28;20042;-70
2022/08/07 01:27:00;;;;;;;1.27;1.00;;;18.10;73.70;;;18.66;64.13;101879.13;5150582;28;20065;-69
2022/08/07 01:29:33;;;;;;;0.80;0.80;;;18.10;73.70;;;18.65;64.22;101881.72;5150733;28;20054;-70
2022/08/07 01:32:07;;;;;;;1.10;1.00;;;18.10;73.90;;;18.61;64.22;101874.59;5150701;28;20097;-70
2022/08/07 01:34:43;;;;;;;1.83;0.90;;;18.00;73.80;;;18.58;64.08;101879.78;5168102;28;20038;-69
2022/08/07 01:37:18;;;;;;;0.88;0.65;;;18.00;73.80;;;18.56;64.07;101873.59;5150440;28;20052;-70
2022/08/07 01:39:51;;;;;;;1.27;0.73;;;18.00;73.70;;;18.54;64.07;101877.97;5150345;28;20046;-69
2022/08/07 01:42:32;;;;;;;1.17;0.90;;;18.00;73.80;;;18.49;64.21;101875.22;5150128;28;20066;-70
2022/08/07 01:45:06;;;;;;;1.70;0.95;;;17.90;73.90;;;18.46;64.17;101869.91;5378010;23;20275;-69
2022/08/07 01:47:41;;;;;;;1.23;1.13;;;17.90;74.00;;;18.45;64.15;101873.38;5147633;28;20388;-69
2022/08/07 01:50:16;;;;;;;0.95;0.93;;;17.90;73.90;;;18.41;63.92;101867.16;5149782;28;20135;-69
2022/08/07 01:52:52;;;;;;;1.00;0.90;;;17.80;73.80;;;18.38;63.99;101866.19;5139279;28;20050;-70
2022/08/07 01:55:29;;;;;;;1.15;1.00;;;17.80;73.90;;;18.34;64.08;101869.66;5129938;28;20404;-70
2022/08/07 01:58:10;;;;;;;2.03;0.90;;;17.80;74.00;;;18.29;64.10;101872.19;5129997;28;20073;-70
2022/08/07 02:00:43;;;;;;;1.35;0.90;;;17.80;73.90;;;18.24;64.24;101867.69;5129909;28;20047;-70
2022/08/07 02:03:19;;;;;;;1.17;0.85;;;17.70;74.00;;;18.15;64.50;101882.47;5130039;28;20081;-69
2022/08/07 02:05:55;;;;;;;2.58;1.10;;;17.70;74.10;;;18.12;64.63;101874.47;5129679;28;20423;-69
2022/08/07 02:08:36;;;;;;;1.80;0.85;;;17.60;74.20;;;18.12;64.65;101882.41;5129950;28;20137;-70
2022/08/07 02:11:10;;;;;;;2.90;1.00;;;17.60;74.40;;;18.13;64.79;101878.94;5128719;28;20074;-70
2022/08/07 02:13:44;;;;;;;1.10;1.00;;;17.60;74.60;;;18.12;65.07;101879.75;5129239;28;20093;-70
2022/08/07 02:16:18;;;;;;;1.00;0.77;;;17.60;74.90;;;18.10;65.29;101873.56;5146742;28;20116;-69
2022/08/07 02:18:54;;;;;;;1.60;0.82;;;17.60;75.20;;;18.09;65.47;101878.81;5129734;28;20050;-70
2022/08/07 02:21:30;;;;;;;1.30;0.85;;;17.60;75.30;;;18.06;65.41;101869.09;5129699;28;20511;-70
2022/08/07 02:24:05;;;;;;;0.98;0.88;;;17.50;75.40;;;18.05;65.66;101876.97;5129675;28;20109;-70
2022/08/07 02:26:39;;;;;;;1.08;0.80;;;17.50;75.50;;;18.01;65.82;101875.13;5129389;28;20532;-69
2022/08/07 02:29:12;;;;;;;1.00;0.90;;;17.40;75.60;;;17.99;65.64;101875.06;5129370;28;20046;-70
2022/08/07 02:31:45;;;;;;;1.77;0.90;;;17.40;75.50;;;17.98;65.68;101877.69;5146790;28;20069;-69
2022/08/07 02:34:19;;;;;;;1.70;0.90;;;17.40;75.60;;;17.96;65.68;101874.13;5129478;28;20142;-70
2022/08/07 02:36:58;;;;;;;1.20;0.90;;;17.40;75.80;;;17.92;65.87;101875.81;5129081;28;20042;-70
2022/08/07 02:39:33;;;;;;;1.70;0.90;;;17.40;75.90;;;17.85;65.90;101873.91;5129465;28;20503;-69
2022/08/07 02:42:07;;;;;;;1.40;1.00;;;17.30;76.00;;;17.78;66.00;101869.34;5129335;28;20055;-69
2022/08/07 02:44:43;;;;;;;1.98;0.90;;;17.30;75.90;;;17.79;66.01;101873.75;5129405;28;20098;-70
2022/08/07 02:47:17;;;;;;;1.02;0.90;;;17.30;76.00;;;17.79;66.15;101874.66;5128754;28;20051;-71
2022/08/07 02:49:50;;;;;;;2.17;0.90;;;17.30;76.20;;;17.79;65.95;101873.75;5128997;28;20043;-70
2022/08/07 02:52:29;;;;;;;0.95;0.80;;;17.30;76.10;;;17.78;66.08;101866.69;5129407;28;20047;-70
2022/08/07 02:55:09;;;;;;;1.40;1.00;;;17.20;76.30;;;17.77;66.14;101870.19;5128997;28;20046;-69
2022/08/07 02:57:45;;;;;;;1.38;0.82;;;17.20;76.30;;;17.75;66.26;101862.25;5146087;28;20046;-70
2022/08/07 03:00:17;;;;;;;1.42;1.02;;;17.20;76.50;;;17.73;66.57;101868.34;5129009;28;20110;-70
2022/08/07 03:02:51;;;;;;;1.42;0.90;;;17.20;76.70;;;17.70;66.67;101860.34;5128917;28;20057;-70
2022/08/07 03:05:25;;;;;;;2.30;1.00;;;17.20;76.90;;;17.68;66.89;101864.69;5128736;28;20069;-70
2022/08/07 03:07:59;;;;;;;1.58;1.40;;;17.10;77.00;;;17.63;66.89;101867.22;5128583;28;20419;-69
2022/08/07 03:10:34;;;;;;;0.85;0.70;;;17.10;77.10;;;17.59;66.91;101868.00;5128968;28;20050;-70
2022/08/07 03:13:07;;;;;;;1.50;0.90;;;17.10;77.10;;;17.57;66.91;101862.69;5128765;28;20082;-70
2022/08/07 03:15:40;;;;;;;1.45;1.05;;;17.00;77.20;;;17.55;66.86;101860.88;5128497;28;20070;-71
2022/08/07 03:18:12;;;;;;;1.02;0.90;;;17.00;77.90;;;17.53;66.94;101866.09;5145917;28;20043;-70
2022/08/07 03:20:46;;;;;;;2.47;1.52;;;17.00;77.30;;;17.49;67.13;101866.91;5145650;28;20046;-70
2022/08/07 03:23:19;;;;;;;2.20;0.95;;;17.00;77.50;;;17.49;66.98;101868.66;5128031;28;20135;-70
2022/08/07 03:25:57;;;;;;;2.17;1.33;;;16.90;77.30;;;17.47;67.01;101865.97;5128134;28;20418;-70
2022/08/07 03:28:31;;;;;;;2.03;0.90;;;16.90;77.40;;;17.45;67.19;101872.94;5128508;28;20058;-70
2022/08/07 03:34:02;;;;;;;1.70;0.90;;;16.90;77.80;;;17.37;67.44;101866.63;5124177;28;20134;-70
2022/08/07 03:36:40;;;;;;;1.70;1.48;;;16.80;78.00;;;17.32;67.69;101865.59;5145564;28;20411;-70
2022/08/07 03:39:13;;;;;;;2.45;1.00;;;16.80;78.40;;;17.30;67.85;101876.13;5128122;28;20089;-70
2022/08/07 03:41:48;;;;;;;2.85;1.17;;;16.80;78.40;;;17.29;68.08;101870.81;5127999;28;20141;-70
2022/08/07 03:44:21;;;;;;;1.58;0.95;;;16.80;78.60;;;17.28;68.16;101869.03;5127800;28;20085;-69
2022/08/07 03:46:55;;;;;;;1.58;1.17;;;16.80;78.70;;;17.27;68.20;101867.22;5127823;28;20102;-70
2022/08/07 03:49:29;;;;;;;2.30;1.00;;;16.80;78.70;;;17.23;68.12;101860.13;5127999;28;20051;-70
2022/08/07 03:52:04;;;;;;;2.75;0.98;;;16.70;78.70;;;17.21;68.31;101859.19;5127642;28;20047;-70
2022/08/07 03:54:37;;;;;;;1.98;1.10;;;16.70;79.00;;;17.19;68.36;101868.78;5127906;28;20051;-70
2022/08/07 03:57:15;;;;;;;1.55;1.02;;;16.70;79.10;;;17.17;68.45;101866.13;5127595;28;20070;-70
2022/08/07 03:59:48;;;;;;;1.35;1.10;;;16.60;79.10;;;17.15;68.61;101862.56;5145058;28;20049;-70
2022/08/07 04:02:21;;;;;;;2.85;1.40;;;16.60;79.30;;;17.13;68.59;101860.72;5144838;28;20047;-70
2022/08/07 04:04:53;;;;;;;2.03;1.30;;;16.60;79.40;;;17.12;68.55;101865.13;5127212;28;20112;-70
2022/08/07 04:07:25;;;;;;;3.10;1.20;;;16.60;79.50;;;17.09;68.68;101863.31;5143005;28;20053;-70
2022/08/07 04:09:59;;;;;;;1.33;1.05;;;16.60;79.50;;;17.06;68.62;101857.94;5127677;28;20047;-70
2022/08/07 04:12:33;;;;;;;2.63;1.20;;;16.60;79.50;;;17.03;68.66;101857.88;5144683;28;20084;-70
2022/08/07 04:15:07;;;;;;;1.35;1.10;;;16.50;79.50;;;17.00;68.51;101857.78;5127707;28;20055;-69
2022/08/07 04:17:43;;;;;;;1.70;1.00;;;16.50;79.40;;;16.97;68.07;101863.00;5127293;28;20424;-70
2022/08/07 04:20:16;;;;;;;1.75;1.10;;;16.50;79.20;;;16.95;67.97;101859.44;5127510;28;20054;-69
2022/08/07 04:22:49;;;;;;;1.15;1.00;;;16.40;79.10;;;16.90;68.06;101855.78;5143460;28;20051;-69
2022/08/07 04:25:23;;;;;;;1.63;1.10;;;16.40;79.10;;;16.92;67.83;101864.63;5127514;28;20059;-70
2022/08/07 04:27:57;;;;;;;0.90;0.90;;;16.40;79.20;;;16.89;67.97;101859.28;5127141;28;20572;-70
2022/08/07 04:30:29;;;;;;;1.13;0.88;;;16.40;79.20;;;16.88;67.97;101873.28;5127335;28;20155;-70
2022/08/07 04:33:07;;;;;;;1.13;1.00;;;16.40;79.30;;;16.87;68.04;101866.22;5127136;28;20062;-70
2022/08/07 04:35:44;;;;;;;1.85;1.00;;;16.40;79.40;;;16.85;68.17;101875.84;5143887;28;20043;-70
2022/08/07 04:38:19;;;;;;;1.63;1.00;;;16.30;79.50;;;16.80;68.27;101869.56;5143439;28;20078;-70
2022/08/07 04:40:54;;;;;;;1.08;1.00;;;16.30;79.50;;;16.80;68.10;101865.19;5127056;28;20059;-70
2022/08/07 04:43:36;;;;;;;2.13;0.93;;;16.30;79.40;;;16.79;68.41;101867.78;5127370;28;20070;-69
2022/08/07 04:46:14;;;;;;;1.30;0.90;;;16.30;80.20;;;16.77;68.50;101869.50;5126187;28;20051;-70
2022/08/07 04:49:01;;;;;;;1.25;0.85;;;16.30;79.80;;;16.79;68.41;101868.66;5127073;28;20152;-69
2022/08/07 04:51:51;;;;;;;1.23;1.02;;;16.30;79.80;;;16.83;68.44;101877.56;5144338;28;20162;-69
2022/08/07 04:54:33;;;;;;;1.20;1.10;;;16.30;79.80;;;16.84;68.54;101881.97;5127064;28;20046;-70
2022/08/07 04:57:29;;;;;;;1.23;1.13;;;16.40;79.80;;;16.85;68.31;101889.00;5126990;28;20055;-70
2022/08/07 05:00:07;;;;;;;1.15;1.02;;;16.40;79.60;;;16.83;68.06;101890.72;5127208;28;20051;-70
2022/08/07 05:02:54;;;;;;;1.17;1.00;;;16.40;79.50;;;16.85;67.83;101889.00;5127040;28;20051;-70
2022/08/07 05:05:34;;;;;;;3.47;1.10;;;16.40;79.50;;;16.79;68.02;101894.09;5143230;28;20043;-69
2022/08/07 05:08:15;;;;;;;1.27;1.05;;;16.40;79.50;;;16.73;68.21;101901.84;5127035;28;20052;-70
2022/08/07 05:10:54;;;;;;;1.15;1.05;;;16.30;79.60;;;16.70;68.17;101900.03;5127010;28;20101;-70
2022/08/07 05:13:35;;;;;;;1.10;1.00;;;16.30;79.60;;;16.52;68.75;101895.09;5126895;28;20047;-71
2022/08/07 05:16:12;;;;;;;2.03;1.63;;;16.30;79.90;;;16.33;69.43;101894.56;5126844;28;20468;-69
2022/08/07 05:18:51;;;;;;;1.02;0.95;;;16.10;80.00;;;16.32;69.64;101898.91;5144398;28;20043;-70
2022/08/07 05:21:27;;;;;;;1.80;1.13;;;16.10;80.20;;;16.46;69.60;101899.31;5142995;28;20053;-70
2022/08/07 05:24:04;;;;;;;1.00;0.90;;;16.10;80.40;;;16.54;69.34;101892.50;5144388;28;20047;-70
2022/08/07 05:26:39;;;;;;;1.85;1.10;;;16.20;80.20;;;16.70;68.88;101900.03;5127208;28;20129;-70
2022/08/07 05:29:16;;;;;;;3.60;1.20;;;16.40;80.10;;;16.85;68.40;101903.91;5126729;28;20050;-70
2022/08/07 05:31:52;;;;;;;3.67;1.20;;;16.50;79.70;;;16.95;68.17;101900.66;5126924;28;20053;-69
2022/08/07 05:34:29;;;;;;;1.33;1.20;;;16.60;79.40;;;17.00;68.05;101902.56;5127008;28;20050;-70
2022/08/07 05:37:02;;;;;;;1.58;1.13;;;16.60;79.20;;;17.06;67.97;101904.47;5126610;28;20133;-70
2022/08/07 05:39:55;;;;;;;1.20;1.10;;;16.70;79.20;;;17.17;67.61;101902.13;5143620;28;20066;-69
2022/08/07 05:42:28;;;;;;;1.10;1.00;;;16.80;79.00;;;17.29;67.32;101898.06;5144201;28;20039;-69
2022/08/07 05:45:02;;;;;;;1.73;0.90;;;16.90;78.90;;;17.40;67.28;101900.94;5126736;28;20196;-69
2022/08/07 05:47:37;;;;;;;1.05;0.95;;;16.90;78.80;;;17.49;67.05;101903.81;5145807;28;20047;-70
2022/08/07 05:50:10;;;;;;;;;;;17.10;78.70;;;17.56;66.86;101905.75;5130742;28;20054;-69
2022/08/07 05:52:42;;;;;;;1.83;1.10;;;17.10;78.60;;;17.68;66.71;101906.88;5130150;28;19929;-70
2022/08/07 05:55:14;;;;;;;1.63;1.27;;;17.20;78.50;;;17.78;66.64;101903.63;5130224;28;20117;-69
2022/08/07 05:57:51;;;;;;;2.38;1.30;;;17.20;78.40;;;17.92;66.36;101903.94;5130226;28;20050;-69
2022/08/07 06:00:25;;;;;;;1.20;0.90;;;17.40;78.30;;;18.01;66.06;101910.31;5130117;28;20130;-70
2022/08/07 06:03:08;;;;;;;2.03;1.30;;;17.50;78.10;;;18.08;65.97;101912.22;5129986;28;20089;-69
2022/08/07 06:05:42;;;;;;;1.13;0.90;;;17.60;77.90;;;18.12;65.92;101916.69;5129619;28;20487;-69
2022/08/07 06:08:16;;;;;;;2.00;1.10;;;17.60;77.80;;;18.23;65.93;101918.69;5129981;28;20058;-70
2022/08/07 06:10:50;;;;;;;;;;;17.70;77.80;;;18.32;65.74;101911.88;5146306;28;20059;-70
2022/08/07 06:13:22;;;;;;;1.42;1.00;;;17.80;77.70;;;18.43;65.71;101906.78;5145577;28;19977;-70
2022/08/07 06:15:56;;;;;;;1.38;1.00;;;17.90;77.70;;;18.53;65.67;101910.53;5129583;28;20057;-70
2022/08/07 06:18:33;;;;;;;2.30;1.10;;;17.90;77.60;;;18.64;65.36;101917.75;5145754;28;20179;-70
2022/08/07 06:21:07;;;;;;;1.30;1.20;;;18.10;77.40;;;18.74;65.34;101924.16;5145726;28;20047;-69
2022/08/07 06:23:41;;;;;;;2.17;0.98;;;18.10;77.40;;;18.80;64.88;101918.13;5129664;28;20051;-70
2022/08/07 06:26:15;;;;;;;2.08;1.08;;;18.20;77.60;;;18.88;64.40;101929.72;5129413;28;20054;-70
2022/08/07 06:28:50;;;;;;;1.75;1.20;;;18.30;76.40;;;18.94;63.52;101932.47;5129480;28;20053;-70
2022/08/07 06:31:24;;;;;;;2.05;1.10;;;18.40;75.70;;;18.97;63.31;101927.22;5128912;28;20544;-70
2022/08/07 06:33:57;;;;;;;1.35;1.13;;;18.40;75.50;;;19.04;63.11;101934.44;5129076;28;20051;-69
2022/08/07 06:36:30;;;;;;;1.00;0.95;;;18.50;75.20;;;19.08;62.58;101924.78;5128339;28;20070;-69
2022/08/07 06:39:03;;;;;;;1.77;1.00;;;18.50;74.70;;;19.11;62.08;101925.75;5128894;28;20561;-68
2022/08/07 06:41:42;;;;;;;1.45;1.02;;;18.60;74.10;;;19.14;61.90;101915.22;5128738;28;20055;-70
2022/08/07 06:44:17;;;;;;;2.35;1.40;;;18.60;73.90;;;19.25;61.96;101920.69;5129086;28;20476;-70
2022/08/07 06:46:52;;;;;;;1.60;0.90;;;18.70;74.00;;;19.36;66.53;101919.09;5128931;28;20047;-56
2022/08/07 06:49:26;;;;;;;0.90;0.80;;;18.80;79.70;;;19.69;69.69;101924.09;5129453;28;20516;-56
2022/08/07 06:52:00;;;;;;;1.13;1.02;;;19.20;81.90;;;19.90;65.60;101915.56;5144137;28;20042;-56
2022/08/07 06:54:32;;;;;;;1.13;1.00;;;19.40;77.10;;;19.99;63.42;101920.09;5146345;28;20058;-56
2022/08/07 06:57:06;;;;;;;1.35;0.98;;;19.50;75.10;;;20.06;62.03;101921.97;5128370;28;20105;-57
2022/08/07 06:59:43;;;;;;;1.30;0.90;;;19.50;73.90;;;20.13;61.22;101912.34;5128781;28;20051;-57
2022/08/07 07:02:20;;;;;;;1.92;0.80;;;19.60;73.30;;;20.19;61.09;101908.03;5144958;28;20043;-54
2022/08/07 07:04:54;;;;;;;1.88;1.15;;;19.60;73.10;;;20.28;60.59;101910.81;5128912;28;20054;-54
2022/08/07 07:07:26;;;;;;;1.75;1.25;;;19.60;72.80;;;20.37;60.51;101902.06;5145960;28;20122;-57
2022/08/07 07:09:58;;;;;;;2.28;1.00;;;19.70;72.70;;;20.47;59.69;101897.78;5146394;28;20051;-55
2022/08/07 07:12:40;;;;;;;2.45;0.82;;;19.70;72.10;;;20.56;59.64;101903.22;5128691;28;20062;-55
2022/08/07 07:15:18;;;;;;;0.80;0.80;;;19.80;72.00;;;20.65;59.06;101897.13;5145657;28;20045;-55
2022/08/07 07:17:59;;;;;;;0.95;0.80;;;19.90;71.50;;;20.78;58.68;101896.38;5145610;28;20039;-56
2022/08/07 07:20:38;;;;;;;1.23;0.70;;;20.00;71.00;;;20.93;58.39;101898.28;5146403;28;20050;-54
2022/08/07 07:23:11;;;;;;;1.40;0.93;;;20.20;70.80;;;21.12;57.84;101892.28;5145872;28;20049;-55
2022/08/07 07:25:45;;;;;;;1.13;0.95;;;20.30;70.40;;;21.31;57.17;101902.19;5145728;28;20105;-55
2022/08/07 07:28:22;;;;;;;0.80;0.80;;;20.50;69.80;;;21.45;56.56;101896.09;5142713;28;20125;-54
2022/08/07 07:31:00;;;;;;;0.82;0.60;;;20.70;69.10;;;21.62;57.01;101907.75;5144330;28;20130;-56
2022/08/07 07:33:35;;;;;;;1.95;0.80;;;20.80;69.40;;;21.87;56.57;101899.06;5143737;28;20127;-56
2022/08/07 07:36:10;;;;;;;1.25;0.60;;;21.00;69.10;;;22.11;56.05;101895.69;5145512;28;20053;-56
2022/08/07 07:38:43;;;;;;;0.80;0.60;;;21.20;68.50;;;22.31;55.08;101889.56;5139151;28;20126;-57
2022/08/07 07:41:18;;;;;;;2.15;0.70;;;21.40;67.70;;;22.45;54.64;101893.16;5145757;28;20518;-55
2022/08/07 07:43:53;;;;;;;0.85;0.57;;;21.60;67.10;;;22.56;53.90;101885.19;5137896;28;20043;-56
2022/08/07 07:46:28;;;;;;;0.75;0.60;;;21.70;66.20;;;22.73;54.43;101886.13;5308001;23;20546;-79
2022/08/07 07:49:02;;;;;;;1.17;0.52;;;21.80;66.80;;;22.91;53.53;101895.94;5148771;28;20050;-80
2022/08/07 07:51:38;;;;;;;0.60;0.60;;;22.00;66.10;;;23.04;53.03;101886.22;5147680;28;20048;-78
2022/08/07 07:54:10;;;;;;;0.60;0.60;;;22.10;65.20;;;23.21;52.71;101888.00;5161724;28;20046;-78
2022/08/07 07:56:44;;;;;;;0.93;0.70;;;22.20;64.80;;;23.32;51.57;101882.66;5166852;28;20053;-81
2022/08/07 07:59:18;;;;;;;0.82;0.50;;;22.40;63.50;;;23.56;52.42;101887.97;5168090;28;20043;-80
2022/08/07 08:01:51;;;;;;;0.65;0.60;;;22.50;64.30;;;23.86;50.96;101880.81;5166554;28;20050;-79
2022/08/07 08:04:26;;;;;;;0.68;0.50;;;22.70;63.60;;;24.12;50.09;101882.50;5149119;28;20050;-78
2022/08/07 08:07:01;;;;;;;0.60;0.50;;;22.90;62.90;;;24.42;49.98;101881.53;5165921;28;20038;-78
2022/08/07 08:09:35;;;;;;;1.23;0.50;;;23.00;62.50;;;24.85;48.58;101879.47;5148061;28;20550;-79
2022/08/07 08:12:08;;;;;;;0.55;0.52;;;23.30;61.90;;;25.20;47.86;101873.91;5166088;28;20121;-79
2022/08/07 08:14:41;;;;;;;3.15;0.63;;;23.50;61.10;;;25.53;47.11;101877.16;5167276;28;20057;-79
2022/08/07 08:17:14;;;;;;;0.70;0.63;;;23.70;60.40;;;25.94;46.30;101874.03;5166389;28;20536;-80
2022/08/07 08:19:47;;;;;;;0.85;0.40;;;23.90;59.80;;;26.48;45.69;101879.63;5166604;28;20046;-80
2022/08/07 08:28:06;;;;;;;0.95;0.60;;;24.80;58.20;;;28.70;42.55;101868.41;5166216;28;20381;-80
2022/08/07 08:30:38;;;;;;;0.95;0.50;;;25.30;57.50;;;29.38;41.38;101872.97;5146020;28;20049;-80
2022/08/07 08:33:15;;;;;;;0.70;0.50;;;25.60;56.70;;;30.24;40.70;101871.47;5164851;28;20050;-80
2022/08/07 08:35:50;;;;;;;0.77;0.40;;;26.00;56.60;;;31.13;38.53;101880.31;5167296;28;20073;-80
2022/08/07 08:38:31;;;;;;;0.90;0.45;;;26.60;54.90;;;32.09;37.49;101868.81;5160123;28;20472;-81
2022/08/07 08:41:15;;;;;;;0.40;0.32;;;27.30;54.30;;;33.29;35.84;101874.81;5150061;28;20046;-81
2022/08/07 08:43:59;;;;;;;1.13;0.70;;;28.20;52.50;;;34.14;34.96;101865.56;5168242;28;20047;-82
2022/08/07 08:46:43;;;;;;;0.50;0.40;;;29.20;51.00;;;34.69;33.50;101867.47;5168987;28;20046;-81
2022/08/07 08:49:23;;;;;;;1.23;0.40;;;29.90;49.30;;;35.11;32.67;101859.06;5170570;28;20042;-82
2022/08/07 08:52:00;;;;;;;2.00;0.50;;;30.40;48.10;;;35.53;32.18;101861.34;5152637;28;20054;-82
2022/08/07 08:54:45;;;;;;;0.30;0.30;;;30.90;47.00;;;36.03;31.91;101852.34;5152240;28;20785;-82
2022/08/07 08:57:27;;;;;;;0.85;0.40;;;31.50;46.30;;;36.39;31.40;101854.88;5168654;28;20053;-81
2022/08/07 09:00:06;;;;;;;1.90;0.50;;;31.90;45.60;;;36.62;31.16;101847.22;5168011;28;20058;-82
2022/08/07 09:02:47;;;;;;;1.20;0.50;;;32.10;45.00;;;36.71;31.05;101841.25;5171533;28;20054;-82
2022/08/07 09:05:34;;;;;;;0.40;0.40;;;32.20;44.80;;;37.02;30.42;101853.06;5171598;28;20121;-83
2022/08/07 09:08:26;;;;;;;0.20;0.20;;;32.50;44.40;;;37.27;30.53;101841.56;5170489;28;20046;-82
2022/08/07 09:11:14;;;;;;;0.32;0.30;;;32.70;44.00;;;37.42;30.51;101844.25;5169827;28;20534;-82
2022/08/07 09:14:09;;;;;;;1.42;0.43;;;32.90;44.00;;;37.42;30.13;101837.94;5169265;28;20053;-83
2022/08/07 09:16:54;;;;;;;0.30;0.20;;;33.00;43.60;;;37.44;30.54;101831.44;5152905;28;20497;-83
2022/08/07 09:19:56;;;;;;;0.35;0.28;;;33.10;43.90;;;36.91;30.33;101835.56;5152930;28;20050;-82
2022/08/07 09:22:54;;;;;;;0.63;0.40;;;33.00;43.20;;;36.07;31.13;101832.22;5155806;28;20065;-83
2022/08/07 09:25:35;;;;;;;0.75;0.30;;;32.50;43.50;;;35.66;32.04;101839.88;5174506;28;20054;-82
2022/08/07 09:28:19;;;;;;;0.30;0.30;;;32.30;44.20;;;35.08;32.60;101840.22;5174256;28;20057;-82
2022/08/07 09:31:00;;;;;;;0.93;0.40;;;32.10;44.30;;;34.39;32.36;101826.53;5156515;28;20060;-81
2022/08/07 09:34:06;;;;;;;1.00;0.43;;;31.90;44.00;;;33.26;33.02;101826.31;5172641;28;20046;-81
2022/08/07 09:36:44;;;;;;;0.65;0.50;;;31.40;44.00;;;32.20;33.71;101829.75;5172485;28;20042;-81
2022/08/07 09:39:31;;;;;;;0.20;0.20;;;30.70;44.40;;;31.36;34.16;101820.28;5172524;28;20042;-82
2022/08/07 09:42:12;;;;;;;0.95;0.30;;;30.10;44.50;;;30.63;35.12;101809.28;5155372;28;20077;-82
2022/08/07 09:44:58;;;;;;;0.40;0.20;;;29.50;44.90;;;30.12;35.65;101801.94;5154830;28;20094;-82
2022/08/07 09:47:38;;;;;;;1.25;0.40;;;29.10;45.60;;;29.87;35.98;101799.97;5172201;28;20042;-82
2022/08/07 09:50:23;;;;;;;0.20;0.20;;;28.80;45.80;;;29.67;36.34;101795.19;5154903;28;20061;-82
2022/08/07 09:53:01;;;;;;;0.98;0.45;;;28.60;46.00;;;29.36;36.41;101794.25;5172212;28;20053;-81
2022/08/07 09:55:56;;;;;;;1.42;0.40;;;28.30;46.20;;;29.20;36.56;101794.66;5155132;28;20046;-81
2022/08/07 09:58:59;;;;;;;1.02;0.30;;;28.30;46.40;;;29.07;36.77;101797.72;5152316;28;20551;-82
2022/08/07 10:01:47;;;;;;;1.63;0.57;;;28.10;46.20;;;29.01;37.46;101779.97;5172903;28;20046;-79
2022/08/07 10:04:33;;;;;;;1.08;0.40;;;28.00;46.70;;;29.00;37.42;101783.56;5176413;28;20065;-79
2022/08/07 10:07:25;;;;;;;0.82;0.30;;;28.00;47.00;;;28.96;37.92;101778.34;5166626;28;20042;-82
2022/08/07 10:10:19;;;;;;;0.43;0.40;;;27.90;47.40;;;28.98;38.01;101763.09;5161606;28;20496;-85
2022/08/07 10:13:11;;;;;;;0.35;0.22;;;27.90;47.60;;;29.08;38.58;101767.25;5167489;28;20046;-84
2022/08/07 10:16:02;;;;;;;0.50;0.30;;;28.00;48.20;;;29.01;38.36;101765.66;5146406;28;20049;-82
2022/08/07 10:19:02;;;;;;;0.38;0.30;;;28.00;48.00;;;28.89;38.16;101765.06;5166025;28;20038;-85
2022/08/07 10:21:47;;;;;;;0.30;0.30;;;27.90;47.60;;;28.79;38.20;101759.97;5143978;28;20132;-85
2022/08/07 10:24:50;;;;;;;1.02;0.30;;;27.80;47.50;;;28.81;37.82;101753.63;5158237;28;20058;-85
2022/08/07 10:27:55;;;;;;;0.38;0.38;;;27.80;47.50;;;28.76;38.60;101758.25;5147593;28;20069;-86
2022/08/07 10:30:34;;;;;;;0.35;0.20;;;27.70;48.10;;;28.98;37.99;101749.66;5143204;28;20520;-84
2022/08/07 10:33:31;;;;;;;0.30;0.30;;;27.80;47.60;;;29.23;37.83;101750.75;5156990;28;20046;-86
2022/08/07 10:36:27;;;;;;;0.60;0.30;;;27.90;47.40;;;29.38;37.37;101750.31;5156155;28;20050;-83
2022/08/07 10:39:05;;;;;;;0.50;0.20;;;28.10;47.20;;;29.43;37.02;101736.75;5163555;28;20053;-83
2022/08/07 10:41:44;;;;;;;0.68;0.30;;;28.20;47.00;;;29.37;37.39;101743.19;5154069;28;20069;-83
2022/08/07 10:44:20;;;;;;;0.52;0.30;;;28.20;47.10;;;29.29;36.93;101739.84;5154643;28;20058;-84
2022/08/07 10:47:02;;;;;;;0.63;0.35;;;28.20;46.70;;;29.12;36.92;101748.34;5148387;28;20046;-84
2022/08/07 10:49:41;;;;;;;0.73;0.50;;;28.00;46.40;;;29.07;36.73;101735.97;5155276;28;20243;-85
2022/08/07 10:52:22;;;;;;;0.65;0.40;;;28.10;46.30;;;28.96;36.56;101735.41;5153261;28;20042;-85
2022/08/07 10:54:59;;;;;;;2.17;0.70;;;27.90;45.90;;;28.57;35.63;101736.38;5169528;28;20399;-84
2022/08/07 10:57:42;;;;;;;0.95;0.52;;;27.70;45.20;;;28.51;36.11;101732.97;5153047;28;20064;-84
2022/08/07 11:00:17;;;;;;;0.40;0.30;;;27.60;45.60;;;28.60;36.82;101724.66;5172580;28;20125;-83
2022/08/07 11:03:00;;;;;;;0.30;0.30;;;27.60;46.10;;;28.69;37.06;101721.78;5155962;28;20082;-82